Bookmark and Share
Track history (hours):
 

Rheinfels

Last reported at 2014-Apr-21 15:30 UTC. Time now 2014-Apr-23 13:12 UTC.
Position N 54°39' W 005°51'.

Length 89 m; draft 3.2 m.

Type: Cargo ship. MMSI: 304010767.

NotesDate/timePositionNaut miles runAvg speedWind from/ knotsBaromVisibWave heightAir tempDewpointWater temp
2014-Apr-21 15:30N 54°39' W 005°51'9 9.2
2014-Apr-21 14:34N 54°45' W 005°40'2110.4
2014-Apr-21 12:33N 55°03' W 005°23'34 9.9
2014-Apr-21 09:04N 55°35' W 004°60'5 9.9
2014-Apr-21 08:34N 55°40' W 004°60'1110.7
2014-Apr-21 07:34N 55°51' W 004°57'9 9.2
2014-Apr-21 06:34N 55°58' W 004°47'1110.9
2014-Apr-21 05:33N 55°55' W 004°28'5 4.8
2014-Apr-21 04:31N 55°52' W 004°21'0 0.0
2014-Apr-21 03:33N 55°52' W 004°21'0 0.0
2014-Apr-21 02:33N 55°52' W 004°21'0 0.0
2014-Apr-21 01:33N 55°52' W 004°21'0 0.0
2014-Apr-21 00:28N 55°52' W 004°21'0 0.0
2014-Apr-20 23:33N 55°52' W 004°21'0 0.0
2014-Apr-20 22:33N 55°52' W 004°21'0 0.0
2014-Apr-20 21:23N 55°52' W 004°21'0 0.0
2014-Apr-20 20:33N 55°52' W 004°21'0 0.0
2014-Apr-20 19:31N 55°52' W 004°21'0 0.0
2014-Apr-20 17:15N 55°52' W 004°21'0 0.0
2014-Apr-20 16:22N 55°52' W 004°21'0 0.0
2014-Apr-20 15:33N 55°52' W 004°21'0 0.0
2014-Apr-20 14:32N 55°52' W 004°21'0 0.0
2014-Apr-20 13:32N 55°52' W 004°21'0 0.0
2014-Apr-20 12:17N 55°52' W 004°21'0 0.0
2014-Apr-20 11:31N 55°52' W 004°21'0 0.0
2014-Apr-20 10:24N 55°52' W 004°21'0 0.0
2014-Apr-20 09:31N 55°52' W 004°21'0 0.0
2014-Apr-20 08:33N 55°52' W 004°21'0 0.0
2014-Apr-20 07:32N 55°52' W 004°21'0 0.0
2014-Apr-20 06:31N 55°52' W 004°21'0 0.0
2014-Apr-20 05:31N 55°52' W 004°21'0 0.0
2014-Apr-20 04:31N 55°52' W 004°21'0 0.0
2014-Apr-20 03:31N 55°52' W 004°21'0 0.0
2014-Apr-20 02:33N 55°52' W 004°21'0 0.0
2014-Apr-20 01:30N 55°52' W 004°21'0 0.0
2014-Apr-20 00:31N 55°52' W 004°21'0 0.0
2014-Apr-19 23:31N 55°52' W 004°21'0 0.0
2014-Apr-19 22:31N 55°52' W 004°21'0 0.0
2014-Apr-19 21:31N 55°52' W 004°21'0 0.0
2014-Apr-19 20:31N 55°52' W 004°21'0 0.0
2014-Apr-19 19:32N 55°52' W 004°21'0 0.0
2014-Apr-19 18:29N 55°52' W 004°21'0 0.0
2014-Apr-19 17:32N 55°52' W 004°21'0 0.0
2014-Apr-19 16:32N 55°52' W 004°21'0 0.0
2014-Apr-19 15:32N 55°52' W 004°21'0 0.0
2014-Apr-19 14:32N 55°52' W 004°21'0 0.0
2014-Apr-19 13:23N 55°52' W 004°21'0 0.0
2014-Apr-19 12:30N 55°52' W 004°21'5 5.2
2014-Apr-19 11:33N 55°55' W 004°28'10 9.8
2014-Apr-19 10:33N 55°57' W 004°45'7 6.8
2014-Apr-19 09:33N 55°54' W 004°55'9 8.6
2014-Apr-19 08:28N 55°44' W 004°59'8 8.5
2014-Apr-19 07:33N 55°37' W 004°60'8 7.2
2014-Apr-19 06:26N 55°29' W 005°00'13 6.7
2014-Apr-19 04:28N 55°15' W 005°02'10 8.5
2014-Apr-19 03:15N 55°06' W 005°11'6 9.2
2014-Apr-19 02:33N 55°01' W 005°17'9 9.1
2014-Apr-19 01:33N 54°52' W 005°16'9 8.5
2014-Apr-19 00:33N 54°44' W 005°11'7 7.5
2014-Apr-18 23:33N 54°37' W 005°07'8 7.6
2014-Apr-18 22:33N 54°30' W 005°03'8 8.1
2014-Apr-18 21:33N 54°22' W 005°01'9 8.5
2014-Apr-18 20:30N 54°13' W 005°04'8 8.7
2014-Apr-18 19:33N 54°05' W 005°07'  
2014-Apr-12 23:23N 45°36' W 001°25'0 0.0
2014-Apr-12 22:29N 45°36' W 001°25'  

Dump ship's entire track history

sailing weather and tide predictions

Rheinfels — V2AI4 — position and weather